Time;durP1;ratioP1;P1;durP2;ratioP2;P2;SDS_P1;SDS_P2;PMS_P1;PMS_P2;Temp;Humidity;BMP_temperature;BMP_pressure;BME280_temperature;BME280_humidity;BME280_pressure;Samples;Min_cycle;Max_cycle;Signal;HPM_P1;HPM_P2
2022/05/28 00:01:51;;;;;;;8.18;4.82;;;;;;;23.17;73.58;100336.16;4858346;29;20058;-73
2022/05/28 00:04:19;;;;;;;5.97;4.60;;;;;;;23.19;74.12;100333.00;4858847;29;20061;-73
2022/05/28 00:06:47;;;;;;;7.53;4.78;;;;;;;23.11;74.10;100325.69;4855236;29;20065;-73
2022/05/28 00:09:15;;;;;;;8.52;4.95;;;;;;;23.11;74.11;100325.69;4859226;29;20046;-73
2022/05/28 00:11:44;;;;;;;9.90;4.93;;;;;;;23.12;73.88;100330.09;4858716;29;20061;-73
2022/05/28 00:14:13;;;;;;;9.13;5.05;;;;;;;23.08;74.17;100325.22;4859442;29;20046;-73
2022/05/28 00:16:41;;;;;;;7.57;4.72;;;;;;;23.11;74.28;100320.91;4858527;29;20060;-73
2022/05/28 00:19:10;;;;;;;8.65;4.68;;;;;;;23.08;74.35;100316.84;4858652;29;20070;-73
2022/05/28 00:21:38;;;;;;;9.35;4.80;;;;;;;23.00;74.68;100308.75;4858874;29;20505;-73
2022/05/28 00:24:06;;;;;;;7.85;4.68;;;;;;;22.94;74.79;100309.03;4859277;29;20068;-73
2022/05/28 00:26:34;;;;;;;7.85;4.93;;;;;;;22.87;75.39;100311.72;4858494;29;20049;-73
2022/05/28 00:29:02;;;;;;;6.28;4.88;;;;;;;22.88;75.31;100312.53;4858131;29;20057;-73
2022/05/28 00:31:30;;;;;;;12.75;5.13;;;;;;;22.78;75.68;100302.78;4851072;29;20053;-73
2022/05/28 00:33:58;;;;;;;7.75;4.78;;;;;;;22.64;76.26;100304.13;4859115;29;20057;-73
2022/05/28 00:36:26;;;;;;;8.25;5.88;;;;;;;22.51;77.51;100305.44;4859047;29;20057;-73
2022/05/28 00:38:54;;;;;;;12.00;4.93;;;;;;;22.44;77.63;100300.56;4859158;29;20157;-73
2022/05/28 00:41:22;;;;;;;15.20;5.60;;;;;;;22.48;77.89;100295.03;4858921;29;20045;-73
2022/05/28 00:43:50;;;;;;;9.00;4.72;;;;;;;22.63;77.74;100298.94;4859326;29;20053;-73
2022/05/28 00:46:24;;;;;;;9.50;4.90;;;;;;;22.60;77.14;100292.13;4857735;29;20056;-73
2022/05/28 00:48:57;;;;;;;5.82;4.78;;;;;;;22.47;77.67;100288.66;4852049;29;20053;-73
2022/05/28 00:51:29;;;;;;;8.43;5.43;;;;;;;22.48;77.71;100289.47;4858044;29;20053;-73
2022/05/28 00:54:00;;;;;;;10.98;5.30;;;;;;;22.53;77.65;100287.19;4852121;29;20048;-73
2022/05/28 00:56:29;;;;;;;10.80;5.32;;;;;;;22.65;77.19;100277.88;4858436;29;20430;-73
2022/05/28 00:58:58;;;;;;;10.93;5.82;;;;;;;22.57;77.00;100272.53;4858594;29;20056;-73
2022/05/28 01:01:30;;;;;;;11.88;6.00;;;;;;;22.32;78.04;100275.59;4858229;29;20057;-73
2022/05/28 01:04:06;;;;;;;7.70;5.97;;;;;;;22.14;78.97;100265.72;4858101;29;20057;-74
2022/05/28 01:06:59;;;;;;;9.57;6.32;;;;;;;22.11;79.84;100262.88;4858740;29;20421;-73
2022/05/28 01:09:44;;;;;;;10.40;6.47;;;;;;;22.26;78.63;100261.97;4855340;29;20049;-73
2022/05/28 01:12:41;;;;;;;10.48;6.13;;;;;;;22.17;79.26;100257.78;4855490;29;20049;-73
2022/05/28 01:15:20;;;;;;;14.18;5.93;;;;;;;22.32;78.70;100258.88;4861743;29;20058;-73
2022/05/28 01:17:58;;;;;;;11.82;6.55;;;;;;;22.10;79.67;100252.91;4862358;29;20057;-73
2022/05/28 01:20:37;;;;;;;11.25;6.18;;;;;;;21.95;80.39;100258.16;4860931;29;20049;-72
2022/05/28 01:23:11;;;;;;;9.23;6.40;;;;;;;21.99;80.32;100258.22;4861858;29;20524;-72
2022/05/28 01:25:56;;;;;;;11.85;6.68;;;;;;;21.97;80.45;100255.84;4862498;29;20485;-72
2022/05/28 01:28:32;;;;;;;9.02;6.95;;;;;;;21.96;80.67;100265.38;4861995;29;20058;-72
2022/05/28 01:31:02;;;;;;;14.40;7.93;;;;;;;21.96;80.49;100258.97;4842969;29;20061;-72
2022/05/28 01:33:45;;;;;;;9.35;6.80;;;;;;;22.13;79.82;100255.75;4862104;29;20046;-73
2022/05/28 01:36:26;;;;;;;10.98;6.63;;;;;;;21.94;80.38;100250.19;4854713;29;20049;-73
2022/05/28 01:38:55;;;;;;;8.68;6.95;;;;;;;21.83;80.89;100250.75;4861621;29;20065;-73
2022/05/28 01:41:25;;;;;;;12.38;7.47;;;;;;;21.64;81.89;100243.16;4861831;29;20053;-73
2022/05/28 01:43:54;;;;;;;15.30;6.88;;;;;;;21.61;82.25;100236.34;4845197;29;20073;-73
2022/05/28 01:46:27;;;;;;;14.48;7.80;;;;;;;21.46;83.47;100238.00;4861586;29;20064;-72
2022/05/28 01:48:56;;;;;;;10.83;7.30;;;;;;;21.47;83.12;100222.91;4862217;29;20060;-73
2022/05/28 01:51:28;;;;;;;10.25;7.25;;;;;;;21.50;83.13;100228.94;4860971;29;20543;-72
2022/05/28 01:54:11;;;;;;;12.10;7.63;;;;;;;21.53;82.81;100217.88;4862208;29;20054;-72
2022/05/28 01:56:49;;;;;;;14.75;7.03;;;;;;;21.58;82.66;100212.03;4861378;29;20064;-72
2022/05/28 01:59:23;;;;;;;15.68;7.95;;;;;;;21.66;82.16;100210.22;4860801;29;20058;-72
2022/05/28 02:01:54;;;;;;;8.45;6.65;;;;;;;21.69;81.99;100211.44;4860599;29;20433;-72
2022/05/28 02:04:22;;;;;;;12.40;7.68;;;;;;;21.49;82.95;100203.06;4861273;29;20050;-72
2022/05/28 02:06:51;;;;;;;9.93;6.95;;;;;;;21.35;83.88;100198.81;4861535;29;20413;-72
2022/05/28 02:09:24;;;;;;;11.45;7.45;;;;;;;21.52;82.91;100201.53;4860189;29;20053;-72
2022/05/28 02:11:52;;;;;;;13.90;7.13;;;;;;;21.62;82.57;100198.19;4860405;29;20054;-72
2022/05/28 02:14:31;;;;;;;13.25;8.27;;;;;;;21.60;82.64;100198.53;4861145;29;20511;-72
2022/05/28 02:17:24;;;;;;;11.27;7.07;;;;;;;21.51;83.08;100202.72;4855578;29;20062;-72
2022/05/28 02:19:51;;;;;;;11.85;7.55;;;;;;;21.54;82.94;100193.59;4859230;29;20062;-72
2022/05/28 02:22:32;;;;;;;10.30;7.38;;;;;;;21.42;83.71;100198.16;4854963;29;20054;-72
2022/05/28 02:25:06;;;;;;;10.07;7.50;;;;;;;21.51;83.10;100197.13;4848791;29;20049;-72
2022/05/28 02:27:39;;;;;;;13.07;7.53;;;;;;;21.36;84.46;100199.59;4855000;29;20532;-72
2022/05/28 02:30:09;;;;;;;12.30;8.40;;;;;;;21.41;83.86;100190.97;4854355;29;20417;-72
2022/05/28 02:32:37;;;;;;;13.68;6.95;;;;;;;21.44;83.61;100184.69;4860637;29;20505;-72
2022/05/28 02:35:07;;;;;;;12.50;7.50;;;;;;;21.41;83.72;100188.19;4861276;29;20053;-72
2022/05/28 02:37:35;;;;;;;13.23;8.60;;;;;;;21.36;84.10;100194.03;4860307;29;20064;-72
2022/05/28 02:40:04;;;;;;;14.40;8.52;;;;;;;21.28;84.20;100183.91;4860059;29;20048;-73
2022/05/28 02:42:32;;;;;;;11.60;8.07;;;;;;;21.23;84.53;100185.00;4860312;29;20057;-72
2022/05/28 02:45:00;;;;;;;12.93;8.02;;;;;;;21.27;84.04;100185.91;4860802;29;20413;-73
2022/05/28 02:47:28;;;;;;;13.88;8.43;;;;;;;21.26;84.14;100200.97;4860341;29;20053;-73
2022/05/28 02:49:56;;;;;;;18.02;9.32;;;;;;;21.36;83.33;100188.47;4859838;29;20046;-72
2022/05/28 02:52:24;;;;;;;14.05;9.50;;;;;;;21.16;84.47;100194.00;4861240;29;20049;-72
2022/05/28 02:54:52;;;;;;;13.32;8.65;;;;;;;20.93;85.87;100191.88;4860318;29;20054;-72
2022/05/28 02:57:20;;;;;;;15.75;8.63;;;;;;;20.85;86.84;100186.50;4861018;29;20061;-73
2022/05/28 02:59:48;;;;;;;13.20;9.23;;;;;;;20.79;87.64;100192.31;4859755;29;20049;-72
2022/05/28 03:02:16;;;;;;;13.30;9.18;;;;;;;20.74;87.82;100186.22;4860427;29;20050;-72
2022/05/28 03:04:44;;;;;;;11.70;8.52;;;;;;;20.81;88.07;100186.38;4843706;29;20053;-72
2022/05/28 03:07:12;;;;;;;12.30;9.50;;;;;;;20.83;87.49;100178.50;4860010;29;20038;-72
2022/05/28 03:09:40;;;;;;;14.65;8.30;;;;;;;20.90;87.10;100191.78;4859859;29;20379;-71
2022/05/28 03:12:09;;;;;;;14.38;9.25;;;;;;;21.03;86.31;100187.75;4860465;29;20049;-72
2022/05/28 03:14:37;;;;;;;13.98;8.63;;;;;;;21.08;86.45;100184.66;4860593;29;20045;-72
2022/05/28 03:17:05;;;;;;;12.63;8.65;;;;;;;21.15;85.66;100186.81;4866521;29;20060;-72
2022/05/28 03:19:33;;;;;;;12.65;8.20;;;;;;;21.15;85.57;100186.00;4859814;29;20060;-72
2022/05/28 03:22:00;;;;;;;13.95;8.30;;;;;;;21.13;85.71;100183.59;4859226;29;20506;-72
2022/05/28 03:24:28;;;;;;;13.98;8.93;;;;;;;21.17;85.67;100187.25;4859639;29;20058;-72
2022/05/28 03:26:57;;;;;;;13.50;8.70;;;;;;;21.12;85.61;100176.41;4859861;29;20053;-72
2022/05/28 03:29:26;;;;;;;14.27;8.55;;;;;;;21.10;86.01;100189.09;4859380;29;20406;-72
2022/05/28 03:31:54;;;;;;;13.68;8.20;;;;;;;21.11;85.99;100182.34;4859710;29;20058;-73
2022/05/28 03:34:21;;;;;;;14.40;8.98;;;;;;;21.18;85.73;100182.50;4860058;29;20050;-72
2022/05/28 03:36:50;;;;;;;14.25;8.95;;;;;;;21.20;85.25;100178.19;4859321;29;20064;-72
2022/05/28 03:39:18;;;;;;;17.05;8.80;;;;;;;21.16;85.45;100180.06;4858993;29;20061;-72
2022/05/28 03:41:46;;;;;;;12.25;7.22;;;;;;;21.12;85.73;100181.97;4858838;29;20413;-72
2022/05/28 03:44:14;;;;;;;14.63;8.68;;;;;;;21.15;85.88;100189.59;4859162;29;20053;-72
2022/05/28 03:46:43;;;;;;;12.05;8.27;;;;;;;21.17;85.61;100187.25;4843198;29;20053;-73
2022/05/28 03:49:25;;;;;;;15.20;8.63;;;;;;;21.24;85.55;100180.22;4859783;29;20049;-72
2022/05/28 03:51:55;;;;;;;12.05;8.02;;;;;;;21.21;85.33;100181.75;4855104;29;20061;-72
2022/05/28 03:54:23;;;;;;;11.55;7.75;;;;;;;21.25;85.50;100193.00;4859241;29;20053;-72
2022/05/28 03:56:56;;;;;;;19.00;8.73;;;;;;;21.28;85.37;100181.13;4859084;29;20065;-73
2022/05/28 03:59:24;;;;;;;14.00;7.70;;;;;;;21.27;84.82;100185.91;4858830;29;20425;-72
2022/05/28 04:01:53;;;;;;;11.23;7.50;;;;;;;21.46;84.03;100187.91;4858985;29;20532;-72
2022/05/28 04:04:21;;;;;;;10.23;7.63;;;;;;;21.50;83.70;100178.81;4859546;29;20061;-72
2022/05/28 04:06:49;;;;;;;11.35;8.10;;;;;;;21.55;83.18;100178.53;4859606;29;20049;-72
2022/05/28 04:09:18;;;;;;;19.83;8.80;;;;;;;21.50;83.25;100178.81;4858701;29;20054;-72
2022/05/28 04:11:46;;;;;;;12.32;8.82;;;;;;;21.40;83.47;100175.44;4858683;29;20054;-73
2022/05/28 04:14:14;;;;;;;13.80;9.30;;;;;;;21.27;83.64;100180.34;4859225;29;20111;-73
2022/05/28 04:16:41;;;;;;;15.80;8.50;;;;;;;21.22;83.60;100177.84;4855290;29;20042;-73
2022/05/28 04:19:10;;;;;;;11.88;7.88;;;;;;;21.15;83.44;100184.03;4859106;29;20065;-72
2022/05/28 04:21:38;;;;;;;14.35;8.10;;;;;;;21.21;83.87;100177.03;4858577;29;20058;-72
2022/05/28 04:24:06;;;;;;;12.40;8.40;;;;;;;21.11;84.85;100185.91;4859413;29;20060;-72
2022/05/28 04:26:34;;;;;;;15.95;8.50;;;;;;;21.10;84.09;100175.97;4858661;29;20053;-72
2022/05/28 04:29:02;;;;;;;13.60;8.23;;;;;;;21.22;84.50;100180.63;4858703;29;20061;-72
2022/05/28 04:31:31;;;;;;;13.75;7.97;;;;;;;21.28;83.31;100183.91;4858956;29;20044;-73
2022/05/28 04:33:58;;;;;;;9.32;7.05;;;;;;;21.42;82.21;100178.69;4859197;29;20120;-72
2022/05/28 04:36:26;;;;;;;12.07;7.80;;;;;;;21.47;82.34;100178.38;4858718;29;20057;-72
2022/05/28 04:38:55;;;;;;;11.45;7.80;;;;;;;21.68;81.26;100180.00;4859432;29;20045;-73
2022/05/28 04:41:23;;;;;;;13.10;8.13;;;;;;;21.62;81.66;100173.91;4858680;29;20493;-73
2022/05/28 04:43:50;;;;;;;15.38;9.18;;;;;;;21.72;81.16;100171.75;4849097;29;20366;-72
2022/05/28 04:46:19;;;;;;;14.20;8.65;;;;;;;21.70;81.01;100174.09;4857819;29;20060;-73
2022/05/28 04:48:47;;;;;;;22.70;9.52;;;;;;;21.77;80.32;100184.56;4856583;29;20064;-72
2022/05/28 04:51:15;;;;;;;12.68;8.77;;;;;;;21.87;80.25;100181.22;4857257;29;20068;-72
2022/05/28 04:53:43;;;;;;;12.20;7.78;;;;;;;21.95;79.81;100176.59;4854998;29;20064;-72
2022/05/28 04:56:14;;;;;;;13.15;8.02;;;;;;;22.11;79.83;100176.50;4856610;29;20050;-73
2022/05/28 04:58:43;;;;;;;12.60;7.80;;;;;;;22.15;79.04;100164.22;4856354;29;20056;-72
2022/05/28 05:01:16;;;;;;;15.57;8.68;;;;;;;22.34;78.85;100170.13;4857280;29;20050;-73
2022/05/28 05:03:44;;;;;;;11.20;7.88;;;;;;;22.47;77.84;100171.56;4859347;29;20058;-73
2022/05/28 05:06:12;;;;;;;11.65;7.93;;;;;;;22.61;76.48;100170.22;4858595;29;20056;-73
2022/05/28 05:08:45;;;;;;;15.82;8.60;;;;;;;22.61;76.29;100168.25;4855872;29;20533;-73
2022/05/28 05:11:16;;;;;;;10.20;7.63;;;;;;;22.56;75.87;100168.56;4855062;29;20061;-72
2022/05/28 05:13:45;;;;;;;13.13;7.85;;;;;;;22.82;74.75;100162.19;4855779;29;20674;-72
2022/05/28 05:16:15;;;;;;;11.80;7.22;;;;;;;22.93;74.94;100169.94;4858469;29;20049;-73
2022/05/28 05:18:50;;;;;;;11.95;7.03;;;;;;;22.99;74.09;100162.03;4857581;29;20056;-72
2022/05/28 05:21:18;;;;;;;9.45;6.55;;;;;;;23.22;71.98;100159.22;4857779;29;20053;-72
2022/05/28 05:23:47;;;;;;;11.35;6.57;;;;;;;23.25;71.80;100158.44;4857663;29;20555;-72
2022/05/28 05:26:19;;;;;;;8.15;6.35;;;;;;;23.42;71.04;100164.69;4856337;29;20050;-73
2022/05/28 05:28:49;;;;;;;9.88;6.43;;;;;;;23.88;68.91;100161.66;4858057;29;20053;-75
2022/05/28 05:31:17;;;;;;;13.07;6.75;;;;;;;24.07;68.23;100170.22;4857879;29;20254;-75
2022/05/28 05:33:46;;;;;;;9.75;5.82;;;;;;;24.12;68.12;100164.31;4858118;29;20057;-75
2022/05/28 05:36:15;;;;;;;10.57;6.35;;;;;;;24.12;67.85;100159.53;4857076;29;20536;-75
2022/05/28 05:38:44;;;;;;;8.73;6.35;;;;;;;24.18;67.34;100148.03;4858381;29;20057;-74
2022/05/28 05:41:12;;;;;;;11.18;6.63;;;;;;;24.26;67.39;100146.88;4858785;29;20049;-75
2022/05/28 05:43:42;;;;;;;11.68;6.40;;;;;;;24.38;68.12;100143.81;4857572;29;20060;-75
2022/05/28 05:46:14;;;;;;;10.57;6.47;;;;;;;24.45;67.49;100142.25;4842485;29;20512;-75
2022/05/28 05:48:45;;;;;;;8.18;5.85;;;;;;;24.61;67.40;100142.78;4842841;29;20498;-75
2022/05/28 05:51:16;;;;;;;10.70;6.35;;;;;;;24.78;66.60;100143.31;4858254;29;20060;-75
2022/05/28 05:53:44;;;;;;;8.43;6.22;;;;;;;24.81;66.64;100136.97;4855726;29;20059;-75
2022/05/28 05:56:12;;;;;;;8.07;6.00;;;;;;;24.82;66.04;100138.56;4857812;29;20073;-75
2022/05/28 05:58:41;;;;;;;10.38;6.32;;;;;;;24.85;66.08;100132.22;4858474;29;20045;-74
2022/05/28 06:01:09;;;;;;;10.32;5.80;;;;;;;24.89;65.87;100127.44;4858545;29;20034;-75
2022/05/28 06:03:44;;;;;;;11.23;6.03;;;;;;;24.93;64.75;100133.84;4859608;29;20054;-75
2022/05/28 06:06:15;;;;;;;9.43;6.00;;;;;;;25.02;65.16;100138.31;4860775;29;20064;-74
2022/05/28 06:08:44;;;;;;;10.52;5.57;;;;;;;25.20;64.57;100133.63;4856324;29;20042;-75
2022/05/28 06:11:13;;;;;;;8.02;4.95;;;;;;;25.33;63.94;100142.47;4858322;29;20512;-76
2022/05/28 06:13:41;;;;;;;5.28;4.70;;;;;;;25.45;64.30;100141.34;4855409;29;20049;-75
2022/05/28 06:16:10;;;;;;;7.22;5.95;;;;;;;25.32;64.73;100137.28;4856582;29;20053;-75
2022/05/28 06:18:41;;;;;;;9.00;5.88;;;;;;;25.42;64.58;100130.91;4855760;29;20060;-75
2022/05/28 06:21:10;;;;;;;6.57;5.80;;;;;;;25.49;63.37;100125.34;4857909;29;20446;-75
2022/05/28 06:23:41;;;;;;;13.13;6.65;;;;;;;25.45;63.60;100130.13;4855658;29;20052;-75
2022/05/28 06:26:10;;;;;;;10.80;6.20;;;;;;;25.63;63.75;100135.84;4851975;29;20058;-75
2022/05/28 06:28:40;;;;;;;8.85;5.65;;;;;;;25.72;63.13;100132.63;4838348;29;20417;-75
2022/05/28 06:31:10;;;;;;;9.23;4.82;;;;;;;25.81;60.64;100131.47;4859744;29;20057;-76
2022/05/28 06:33:40;;;;;;;5.63;4.93;;;;;;;25.75;59.85;100136.66;4859613;29;21151;-75
2022/05/28 06:36:10;;;;;;;9.35;5.40;;;;;;;25.77;60.19;100129.47;4857963;29;20421;-76
2022/05/28 06:38:40;;;;;;;8.40;5.00;;;;;;;25.77;60.30;100129.47;4858909;29;20049;-75
2022/05/28 06:41:08;;;;;;;8.35;5.22;;;;;;;25.91;59.92;100139.13;4860418;29;20413;-75
2022/05/28 06:43:37;;;;;;;8.25;5.45;;;;;;;25.98;59.48;100127.91;4842471;29;20486;-75
2022/05/28 06:46:10;;;;;;;7.07;5.10;;;;;;;26.14;59.83;100126.72;4844082;29;20498;-75
2022/05/28 06:48:40;;;;;;;5.78;4.88;;;;;;;26.15;59.27;100125.56;4859682;29;20061;-75
2022/05/28 06:51:10;;;;;;;8.63;4.80;;;;;;;26.35;58.09;100111.16;4842170;29;20497;-75
2022/05/28 06:53:40;;;;;;;7.43;4.78;;;;;;;26.27;58.18;100110.34;4857601;29;20049;-76
2022/05/28 06:56:10;;;;;;;5.65;4.90;;;;;;;26.37;58.46;100114.34;4855130;29;20414;-75
2022/05/28 06:58:40;;;;;;;8.88;4.65;;;;;;;26.46;57.91;100103.56;4854164;29;20050;-75
2022/05/28 07:01:09;;;;;;;5.85;4.30;;;;;;;26.52;56.85;100104.75;4843826;29;20069;-75
2022/05/28 07:03:40;;;;;;;6.75;4.38;;;;;;;26.57;56.78;100103.53;4844672;29;20061;-75
2022/05/28 07:06:08;;;;;;;8.20;4.70;;;;;;;26.60;56.75;100110.34;4849052;29;20489;-75
2022/05/28 07:08:36;;;;;;;6.43;4.25;;;;;;;26.74;55.66;100101.09;4858686;29;20050;-75
2022/05/28 07:11:07;;;;;;;11.20;4.35;;;;;;;26.65;54.91;100095.91;4858979;29;20054;-76
2022/05/28 07:13:37;;;;;;;6.32;3.97;;;;;;;26.75;55.08;100103.53;4858195;29;20046;-75
2022/05/28 07:16:07;;;;;;;4.00;3.60;;;;;;;26.87;54.32;100090.28;4858903;29;20062;-76
2022/05/28 07:18:37;;;;;;;4.53;4.03;;;;;;;26.88;54.13;100103.88;4858890;29;20042;-74
2022/05/28 07:21:07;;;;;;;6.20;3.92;;;;;;;26.95;53.84;100091.88;4859384;29;20677;-77
2022/05/28 07:23:36;;;;;;;6.90;4.03;;;;;;;27.01;54.16;100090.25;4857946;29;20053;-75
2022/05/28 07:26:08;;;;;;;7.32;3.83;;;;;;;26.99;54.23;100092.66;4858563;29;20049;-77
2022/05/28 07:28:39;;;;;;;6.30;3.65;;;;;;;27.16;53.58;100090.19;4856466;29;20046;-76
2022/05/28 07:31:10;;;;;;;4.90;3.72;;;;;;;27.22;52.77;100095.00;4858932;29;20049;-77
2022/05/28 07:33:41;;;;;;;5.38;3.65;;;;;;;27.10;52.86;100093.44;4846965;29;20100;-76
2022/05/28 07:36:12;;;;;;;6.43;3.65;;;;;;;27.14;53.56;100079.38;4859588;29;20053;-76
2022/05/28 07:38:42;;;;;;;6.28;4.38;;;;;;;27.15;53.01;100078.16;4859968;29;20045;-76
2022/05/28 07:41:13;;;;;;;6.85;4.20;;;;;;;27.16;53.32;100070.53;4859051;29;20050;-76
2022/05/28 07:43:42;;;;;;;5.28;3.70;;;;;;;27.24;52.99;100069.31;4858338;29;20061;-76
2022/05/28 07:46:16;;;;;;;5.25;4.22;;;;;;;27.33;52.24;100075.28;4859441;29;20068;-75
2022/05/28 07:48:50;;;;;;;7.50;4.03;;;;;;;27.44;52.03;100078.06;4857719;29;20062;-76
2022/05/28 07:51:18;;;;;;;8.95;3.75;;;;;;;27.48;52.13;100073.19;4858364;29;20092;-76
2022/05/28 07:53:46;;;;;;;6.53;3.67;;;;;;;27.54;52.03;100082.00;4858308;29;20053;-77
2022/05/28 07:56:15;;;;;;;4.30;3.90;;;;;;;27.68;51.41;100086.78;4859381;29;20049;-77
2022/05/28 07:58:44;;;;;;;6.97;3.83;;;;;;;27.65;51.62;100086.81;4858974;29;20052;-77
2022/05/28 08:01:24;;;;;;;5.25;4.13;;;;;;;27.89;50.75;100073.78;4858806;29;20062;-77
2022/05/28 08:03:58;;;;;;;4.05;3.65;;;;;;;28.02;50.61;100085.34;4858745;29;20074;-76
2022/05/28 08:06:28;;;;;;;4.75;3.60;;;;;;;27.99;49.82;100083.34;4858396;29;20053;-77
2022/05/28 08:08:56;;;;;;;6.40;3.78;;;;;;;27.94;50.30;100086.63;4857480;29;20057;-76
2022/05/28 08:11:24;;;;;;;4.90;3.92;;;;;;;27.94;50.60;100090.22;4857624;29;20057;-76
2022/05/28 08:13:53;;;;;;;7.25;4.32;;;;;;;27.98;50.01;100084.56;4858765;29;20045;-76
2022/05/28 08:16:22;;;;;;;3.97;3.55;;;;;;;27.92;50.33;100091.84;4858611;29;20046;-76
2022/05/28 08:18:50;;;;;;;4.30;3.90;;;;;;;27.96;49.83;100084.19;4859374;29;20049;-75
2022/05/28 08:24:06;;;;;;;8.57;4.18;;;;;;;27.99;49.90;100097.41;4856130;29;20070;-76
2022/05/28 08:26:36;;;;;;;3.60;3.30;;;;;;;27.88;49.68;100080.63;4859256;29;20042;-76
2022/05/28 08:29:04;;;;;;;15.30;4.20;;;;;;;27.83;49.54;100081.06;4855858;29;20061;-76
2022/05/28 08:31:32;;;;;;;5.80;3.40;;;;;;;27.80;49.84;100082.69;4844646;29;20053;-76
2022/05/28 08:34:01;;;;;;;6.70;3.45;;;;;;;27.58;50.09;100060.34;4858375;29;20060;-76
2022/05/28 08:36:29;;;;;;;5.25;3.85;;;;;;;27.65;50.19;100081.97;4858847;29;20481;-76
2022/05/28 08:38:57;;;;;;;4.05;3.30;;;;;;;27.69;49.62;100076.31;4858612;29;20064;-76
2022/05/28 08:41:36;;;;;;;6.90;3.25;;;;;;;27.68;49.05;100072.72;4858435;29;20614;-76
2022/05/28 08:44:32;;;;;;;7.45;3.30;;;;;;;27.56;49.54;100073.19;4858558;29;20049;-76
2022/05/28 08:47:18;;;;;;;4.82;3.58;;;;;;;27.76;49.83;100073.50;4838111;29;20053;-76
2022/05/28 08:49:47;;;;;;;7.20;3.38;;;;;;;27.92;49.09;100070.16;4857254;29;20049;-77
2022/05/28 08:52:25;;;;;;;5.05;3.28;;;;;;;27.86;48.23;100080.25;4857531;29;20057;-76
2022/05/28 08:54:59;;;;;;;5.88;3.20;;;;;;;28.03;47.72;100072.88;4856831;29;20083;-76
2022/05/28 08:57:53;;;;;;;4.57;3.30;;;;;;;28.26;47.45;100072.31;4859031;29;20056;-75
2022/05/28 09:00:47;;;;;;;4.50;3.42;;;;;;;28.34;47.19;100069.47;4850875;29;20417;-76
2022/05/28 09:03:20;;;;;;;6.60;3.35;;;;;;;28.46;46.24;100068.13;4858468;29;20061;-75
2022/05/28 09:05:50;;;;;;;5.05;3.30;;;;;;;28.42;46.53;100065.34;4855313;29;20060;-76
2022/05/28 09:08:49;;;;;;;6.57;3.42;;;;;;;28.52;45.90;100064.47;4829770;29;20057;-75
2022/05/28 09:11:25;;;;;;;5.03;3.05;;;;;;;28.31;46.41;100068.28;4842144;29;20516;-76
2022/05/28 09:13:54;;;;;;;5.00;3.10;;;;;;;28.30;46.80;100061.06;4858815;29;20057;-75
2022/05/28 09:16:28;;;;;;;4.30;3.13;;;;;;;28.41;46.54;100064.56;4858002;29;20049;-76
2022/05/28 09:19:19;;;;;;;3.92;3.35;;;;;;;28.48;46.09;100079.78;4858697;29;20062;-76
2022/05/28 09:21:48;;;;;;;5.88;3.22;;;;;;;28.36;46.70;100059.41;4858561;29;20429;-76
2022/05/28 09:24:27;;;;;;;3.85;3.20;;;;;;;28.60;45.76;100061.56;4858444;29;20068;-77
2022/05/28 09:27:05;;;;;;;4.97;3.33;;;;;;;28.77;45.93;100073.84;4858510;29;20049;-76
2022/05/28 09:29:49;;;;;;;4.00;2.75;;;;;;;28.38;45.76;100067.41;4858654;29;20049;-76
2022/05/28 09:32:21;;;;;;;7.40;3.30;;;;;;;28.41;46.55;100064.56;4862623;29;20500;-76
2022/05/28 09:35:18;;;;;;;8.60;4.15;;;;;;;28.49;46.31;100076.53;4862044;29;20060;-76
2022/05/28 09:38:04;;;;;;;6.38;4.20;;;;;;;28.42;46.77;100085.06;4849909;29;20386;-76
2022/05/28 09:40:49;;;;;;;4.13;3.72;;;;;;;28.32;47.62;100083.94;4862548;29;20052;-76
2022/05/28 09:43:28;;;;;;;6.97;4.07;;;;;;;27.92;48.04;100086.22;4862183;29;20077;-75
2022/05/28 09:46:18;;;;;;;10.55;4.95;;;;;;;27.81;49.22;100084.28;4861562;29;20057;-76
2022/05/28 09:49:04;;;;;;;12.27;4.88;;;;;;;27.95;48.75;100065.72;4862483;29;20041;-76
2022/05/28 09:51:34;;;;;;;4.65;3.88;;;;;;;28.16;48.42;100071.16;4861946;29;20417;-75
2022/05/28 09:54:23;;;;;;;7.05;4.32;;;;;;;28.21;47.36;100080.38;4845833;29;20061;-76
2022/05/28 09:57:02;;;;;;;6.53;3.70;;;;;;;28.09;46.55;100071.22;4861699;29;20441;-76
2022/05/28 09:59:44;;;;;;;5.13;3.50;;;;;;;28.37;45.26;100077.88;4861470;29;20413;-76
2022/05/28 10:02:21;;;;;;;8.18;3.40;;;;;;;28.49;45.91;100064.50;4861291;29;20076;-76
2022/05/28 10:04:56;;;;;;;6.90;3.65;;;;;;;28.58;45.18;100073.25;4861756;29;20060;-76
2022/05/28 10:07:37;;;;;;;4.00;3.58;;;;;;;28.43;45.45;100066.94;4861881;29;20402;-76
2022/05/28 10:10:35;;;;;;;6.22;3.90;;;;;;;28.39;45.43;100064.19;4861412;29;20808;-76
2022/05/28 10:13:10;;;;;;;4.65;4.00;;;;;;;28.41;44.45;100069.41;4858932;29;20053;-76
2022/05/28 10:15:55;;;;;;;8.25;4.00;;;;;;;28.38;45.60;100076.66;4859747;29;20072;-76
2022/05/28 10:18:38;;;;;;;6.32;4.07;;;;;;;28.57;44.54;100083.72;4859456;29;20525;-76
2022/05/28 10:21:11;;;;;;;5.03;3.90;;;;;;;28.59;44.31;100063.56;4847921;29;20568;-76
2022/05/28 10:23:42;;;;;;;4.38;3.60;;;;;;;28.64;44.85;100076.41;4862353;29;20409;-76
2022/05/28 10:26:33;;;;;;;6.70;4.13;;;;;;;28.63;44.36;100072.78;4858461;29;20057;-76
2022/05/28 10:29:13;;;;;;;8.10;3.53;;;;;;;28.64;45.10;100074.38;4859566;29;20498;-76
2022/05/28 10:31:41;;;;;;;6.68;4.20;;;;;;;28.73;44.05;100082.34;4858871;29;20050;-76
2022/05/28 10:34:28;;;;;;;4.60;3.92;;;;;;;28.99;44.50;100074.47;4858289;29;20057;-76
2022/05/28 10:37:16;;;;;;;7.13;4.80;;;;;;;29.14;43.88;100066.63;4858570;29;20061;-76
2022/05/28 10:39:44;;;;;;;5.38;4.25;;;;;;;29.17;43.69;100054.50;4843110;29;20080;-77
2022/05/28 10:42:16;;;;;;;7.70;5.05;;;;;;;29.01;45.23;100066.38;4858228;29;20049;-76
2022/05/28 10:44:45;;;;;;;5.00;4.40;;;;;;;29.12;44.74;100066.25;4839575;29;20074;-76
2022/05/28 10:47:22;;;;;;;6.22;4.15;;;;;;;28.99;45.19;100048.31;4859515;29;20053;-77
2022/05/28 10:49:51;;;;;;;9.57;4.25;;;;;;;28.86;45.19;100059.28;4856583;29;20064;-77
2022/05/28 10:52:31;;;;;;;9.07;4.30;;;;;;;28.99;45.02;100048.31;4859004;29;20069;-77
2022/05/28 10:55:09;;;;;;;6.53;3.97;;;;;;;29.37;44.16;100049.03;4858937;29;20068;-76
2022/05/28 10:58:13;;;;;;;4.32;3.67;;;;;;;29.56;42.44;100072.16;4858855;29;20053;-77
2022/05/28 11:01:26;;;;;;;8.90;4.22;;;;;;;29.32;43.08;100051.53;4860935;29;20049;-76
2022/05/28 11:04:21;;;;;;;10.18;4.25;;;;;;;29.15;43.95;100056.97;4819310;29;20049;-76
2022/05/28 11:07:30;;;;;;;6.88;4.45;;;;;;;28.97;44.78;100057.97;4859442;29;20080;-77
2022/05/28 11:10:32;;;;;;;9.18;4.65;;;;;;;28.70;45.21;100052.22;4846709;29;20627;-77
2022/05/28 11:13:24;;;;;;;5.80;4.45;;;;;;;28.50;46.01;100052.03;4857652;29;20057;-76
2022/05/28 11:16:19;;;;;;;6.78;4.47;;;;;;;28.76;45.47;100049.75;4855421;29;20054;-76
2022/05/28 11:19:13;;;;;;;6.47;4.25;;;;;;;29.00;45.34;100055.53;4858897;29;20056;-77
2022/05/28 11:21:55;;;;;;;5.45;4.00;;;;;;;29.24;44.42;100051.59;4838447;29;20053;-76
2022/05/28 11:24:45;;;;;;;5.65;3.88;;;;;;;29.05;44.60;100043.81;4855814;29;20053;-76
2022/05/28 11:27:42;;;;;;;5.65;3.95;;;;;;;29.15;45.02;100042.88;4859086;29;20058;-76
2022/05/28 11:30:18;;;;;;;3.97;3.53;;;;;;;29.04;44.89;100045.03;4857466;29;20053;-76
2022/05/28 11:33:04;;;;;;;7.18;4.30;;;;;;;28.83;45.42;100039.19;4858214;29;20378;-77
2022/05/28 11:35:38;;;;;;;6.65;4.03;;;;;;;28.86;44.85;100022.69;4856773;29;20064;-76
2022/05/28 11:38:26;;;;;;;6.78;3.80;;;;;;;28.78;45.04;100045.28;4841321;29;20512;-76
2022/05/28 11:41:17;;;;;;;7.18;4.47;;;;;;;28.57;45.18;100043.50;4858819;29;20448;-75
2022/05/28 11:44:11;;;;;;;6.90;3.78;;;;;;;28.65;45.95;100056.31;4857050;29;20049;-78
2022/05/28 11:47:02;;;;;;;6.57;3.72;;;;;;;28.73;45.92;100056.22;4848092;29;20080;-76
2022/05/28 11:52:57;;;;;;;7.78;4.13;;;;;;;29.05;45.06;100035.34;4857906;29;20033;-76
2022/05/28 11:55:30;;;;;;;5.57;3.72;;;;;;;29.40;44.83;100053.00;4855716;29;20068;-78
2022/05/28 11:58:24;;;;;;;7.47;3.92;;;;;;;28.96;44.47;100076.09;4856837;29;20434;-76